Relevés horaires Semmerzake (Belgique)


Relevés horaires à Semmerzake - Mercredi 10 Avr. 2024
Heure UTC1 Température [°C] Vent [km/h] Hum. [%] Pres.4 [hPa] Visi. [Km] Nébu. [octa] Préc.5 [mm] Cond.
2m. Res. Ros. Dir.2 Vit. Moy. Raf.3
23:00 12.2 11.1 4.4 S 11.1 -- 16.7 59 1029.2(-0.3/3h) >70 -- -- --
22:00 12.3 11.2 4.5 SSO 11.1 -- 16.7 59 1029.2(0.0/3h) >70 -- -- --
21:00 12.4 11.6 4.5 S 9.3 -- 14.8 58 1029.4(0.0/3h) >70 -- -- --
20:00 11.9 11.4 5.0 S 7.4 -- 11.1 63 1029.5(0.3/3h) >70 -- -- --
19:00 11.9 11.4 4.9 S 7.4 -- 14.8 62 1029.2(0.1/3h) >70 -- -- --
18:00 13.5 12.9 4.6 SSO 9.3 -- 16.7 55 1029.2(0.0/3h) >70 -- -- --
17:00 14.5 14.1 3.9 SSO 9.3 -- 16.7 49 1029.2(-0.1/3h) >70 -- -- --
16:00 14.8 14.5 3.4 SSO 9.3 -- 16.7 46 1029(-0.1/3h) >70 -- -- --
15:00 14.1 13.6 2.6 SSO 9.3 -- 16.7 46 1029.2(0.0/3h) >70 -- -- --
14:00 14.6 14.5 2.5 SO 7.4 -- 14.8 44 1029.4(0.0/3h) >70 -- -- --
13:00 14.3 14.2 2.3 SSO 7.4 -- 14.8 44 1029.2(0.1/3h) >70 -- -- --
12:00 13.7 13.5 2.2 SSO 7.4 -- 14.8 46 1029.2(0.4/3h) >70 -- -- --
11:00 13.1 12.8 3.0 SO 7.4 -- 14.8 50 1029.4(0.9/3h) >70 -- -- --
10:00 12.5 12.4 3.6 SSO 5.6 -- 11.1 55 1029(1.3/3h) >70 -- -- --
09:00 11.3 11.3 3.7 SO 3.7 -- 7.4 59 1028.9(1.6/3h) >70 -- -- --
08:00 10.0 10.0 5.4 NNO 3.7 -- 7.4 73 1028.4(2.1/3h) >70 -- -- --
07:00 8.0 8.0 5.3 SO 3.7 -- 5.6 83 1027.9(2.5/3h) 45 -- -- --
06:00 6.0 6.0 4.2 SSO 3.7 -- 9.3 88 1027.4(2.9/3h) 15 -- -- --
05:00 5.5 5.5 3.8 SSO 3.7 -- 5.6 89 1026.2(2.5/3h) 14 -- -- --
04:00 6.0 6.0 4.1 SSO 3.7 -- 7.4 88 1025.2(2.4/3h) 15 -- -- --
03:00 6.2 6.2 4.2 OSO 3.7 -- 9.3 87 1024.4(2.1/3h) 15 -- -- --
02:00 6.5 6.5 4.1 NNO 1.9 -- 7.4 85 1023.7(2.3/3h) 15 -- -- --
01:00 7.3 7.3 4.4 OSO 3.7 -- 9.3 82 1022.8(2.3/3h) 16 -- -- --
00:00 7.5 6.7 4.5 OSO 5.6 -- 20.4 81 1022.2(2.5/3h) 15 -- -- NA

1 Coordinated Universal Time. Actuellement il est 03:00 locale et 01:00 UTC.

2 Le vent souffle depuis la direction indiquée vers la direction oposée.

3 Les rafales max. sont disponible 40 min après l'heure du relevé.

4 Pour les stations d'altitude (plus de 600m) le géopotentiel du niveau le plus proche de la pression obligatoire est indiqué.

5 Les stations disposant d'un diffuseur peuvent indiquer "trace". Cela signifie que des précipitations ont touchés le sol mais que la quantité est inférieure à 0.1 mm.

Récapitulatif de la journée
Température [°C] Vent [km/h] Ensoleillement4 [h] Precipitations totale5 [mm] Pression [Hpa]
Min1 Max.2 Moy.3 Max. Min Max.
5.3 15.4 0 20.4 0 h 0 min 0 1022.2 1029.5

1 Température minimale relevée entre 18:00 UTC la veille et 18:00 UTC le jour donné.

2 Température maximale relevée entre 06:00 UTC le jour donné et 06:00 UTC le lendemain.

3 Vent moyen de la journée basé sur les relevés horaires.

4 Ensoleillement en heures relevé entre 06:00 UTC la veille et 06:00 UTC le jour donné.

5 Précipitations totales tombées entre 06:00 UTC la jour donné et 06:00 UTC le lendemain.

Graphiques horaires